Time;durP1;ratioP1;P1;durP2;ratioP2;P2;SDS_P1;SDS_P2;PMS_P1;PMS_P2;Temp;Humidity;BMP_temperature;BMP_pressure;BME280_temperature;BME280_humidity;BME280_pressure;Samples;Min_cycle;Max_cycle;Signal;HPM_P1;HPM_P2
2022/11/22 00:00:43;;;;;;;33.15;23.83;;;1.50;99.90;;;;;;5029194;28;20412;-81
2022/11/22 00:03:10;;;;;;;41.15;26.40;;;1.60;99.90;;;;;;5006812;28;20225;-85
2022/11/22 00:05:37;;;;;;;31.48;23.45;;;1.70;99.90;;;;;;5005020;28;20209;-84
2022/11/22 00:08:05;;;;;;;39.30;23.20;;;1.70;99.90;;;;;;5019070;28;20205;-81
2022/11/22 00:10:32;;;;;;;43.60;26.77;;;1.70;99.90;;;;;;5004544;28;20194;-80
2022/11/22 00:13:00;;;;;;;37.83;25.30;;;1.70;99.90;;;;;;5020258;28;20209;-84
2022/11/22 00:15:28;;;;;;;38.55;24.88;;;1.70;99.90;;;;;;5020165;28;20198;-84
2022/11/22 00:17:55;;;;;;;34.28;22.38;;;1.70;99.90;;;;;;5004281;28;20405;-82
2022/11/22 00:20:22;;;;;;;37.47;24.27;;;1.80;99.90;;;;;;5010651;28;20203;-79
2022/11/22 00:22:49;;;;;;;38.13;23.27;;;2.00;99.90;;;;;;5020822;28;20523;-85
2022/11/22 00:25:16;;;;;;;38.55;24.60;;;1.80;99.90;;;;;;5023326;28;20216;-83
2022/11/22 00:27:43;;;;;;;33.63;24.27;;;1.70;99.90;;;;;;5005239;28;20228;-82
2022/11/22 00:30:10;;;;;;;31.77;21.60;;;1.80;99.90;;;;;;5004325;28;20222;-83
2022/11/22 00:32:39;;;;;;;38.88;25.50;;;1.80;99.90;;;;;;5020186;28;20494;-79
2022/11/22 00:35:06;;;;;;;39.80;26.63;;;1.90;99.90;;;;;;5018739;28;20205;-80
2022/11/22 00:37:33;;;;;;;38.60;25.55;;;1.80;99.90;;;;;;5002287;28;20197;-79
2022/11/22 00:40:01;;;;;;;33.00;22.02;;;1.70;99.90;;;;;;5019952;28;20256;-82
2022/11/22 00:42:28;;;;;;;29.85;20.40;;;1.70;99.90;;;;;;5019893;28;20233;-79
2022/11/22 00:44:55;;;;;;;34.47;23.08;;;1.50;99.90;;;;;;5018851;28;20506;-79
2022/11/22 00:47:22;;;;;;;38.70;24.88;;;1.40;99.90;;;;;;5019442;28;20524;-79
2022/11/22 00:49:51;;;;;;;33.92;25.42;;;1.40;99.90;;;;;;5002164;28;20205;-85
2022/11/22 00:52:27;;;;;;;39.83;24.65;;;1.40;99.90;;;;;;5000470;28;20530;-84
2022/11/22 00:54:55;;;;;;;34.20;23.02;;;1.50;99.90;;;;;;5024226;28;20213;-82
2022/11/22 00:57:22;;;;;;;28.38;20.15;;;1.50;99.90;;;;;;5031511;28;20182;-82
2022/11/22 00:59:50;;;;;;;28.33;20.40;;;1.40;99.90;;;;;;5021915;28;20559;-82
2022/11/22 01:02:16;;;;;;;31.67;21.75;;;1.40;99.90;;;;;;5021054;28;20225;-78
2022/11/22 01:04:44;;;;;;;34.88;23.48;;;1.70;99.90;;;;;;5018165;28;20216;-81
2022/11/22 01:07:11;;;;;;;31.10;21.42;;;1.60;99.90;;;;;;5022126;28;20201;-82
2022/11/22 01:09:38;;;;;;;34.97;22.80;;;1.50;99.90;;;;;;5010096;28;20252;-80
2022/11/22 01:12:05;;;;;;;31.85;23.30;;;1.40;99.90;;;;;;5018172;28;20225;-83
2022/11/22 01:14:33;;;;;;;32.05;21.80;;;1.50;99.90;;;;;;5023802;28;20213;-81
2022/11/22 01:17:00;;;;;;;35.60;24.33;;;1.50;99.90;;;;;;5001755;28;20204;-83
2022/11/22 01:19:27;;;;;;;40.85;21.90;;;1.60;99.90;;;;;;5019779;28;20205;-82
2022/11/22 01:21:54;;;;;;;33.45;23.13;;;1.50;99.90;;;;;;5020544;28;20553;-84
2022/11/22 01:24:22;;;;;;;36.95;22.00;;;1.50;99.90;;;;;;5021673;28;20201;-82
2022/11/22 01:26:49;;;;;;;34.05;24.10;;;1.50;99.90;;;;;;5020348;28;20252;-79
2022/11/22 01:29:16;;;;;;;38.58;24.58;;;1.50;99.90;;;;;;5023898;28;20212;-82
2022/11/22 01:31:43;;;;;;;44.78;28.20;;;1.50;99.90;;;;;;5027203;28;20222;-85
2022/11/22 01:34:10;;;;;;;37.60;23.38;;;1.50;99.90;;;;;;5022487;28;20210;-81
2022/11/22 01:36:37;;;;;;;36.22;24.02;;;1.40;99.90;;;;;;5028928;28;20210;-84
2022/11/22 01:39:04;;;;;;;43.60;28.05;;;1.40;99.90;;;;;;5022379;28;20272;-83
2022/11/22 01:41:32;;;;;;;37.83;24.88;;;1.40;99.90;;;;;;5023375;28;20434;-83
2022/11/22 01:44:21;;;;;;;33.50;20.60;;;1.20;99.90;;;;;;5011544;28;20284;-82
2022/11/22 01:46:52;;;;;;;42.53;25.63;;;1.10;99.90;;;;;;5025160;28;20232;-80
2022/11/22 01:49:28;;;;;;;36.35;21.65;;;1.00;99.90;;;;;;5022167;28;20198;-87
2022/11/22 01:52:01;;;;;;;37.42;23.67;;;1.10;99.90;;;;;;5021788;28;20248;-79
2022/11/22 01:54:32;;;;;;;35.72;22.77;;;1.00;99.90;;;;;;5023434;28;20430;-82
2022/11/22 01:57:05;;;;;;;32.20;20.85;;;1.00;99.90;;;;;;5022413;28;20202;-80
2022/11/22 01:59:35;;;;;;;38.10;26.00;;;1.00;99.90;;;;;;5020452;28;20214;-81
2022/11/22 02:02:04;;;;;;;34.03;22.85;;;1.00;99.90;;;;;;5009364;28;20347;-82
2022/11/22 02:04:34;;;;;;;35.75;22.70;;;1.00;99.90;;;;;;5013890;28;20201;-78
2022/11/22 02:07:22;;;;;;;34.40;22.67;;;1.20;99.90;;;;;;5026723;28;20379;-86
2022/11/22 02:09:51;;;;;;;42.15;23.85;;;0.90;99.90;;;;;;5021280;28;20269;-83
2022/11/22 02:12:22;;;;;;;38.78;21.63;;;0.80;99.90;;;;;;5004148;28;20216;-79
2022/11/22 02:14:50;;;;;;;37.25;22.42;;;0.80;99.90;;;;;;5020758;28;20202;-79
2022/11/22 02:17:17;;;;;;;41.40;25.92;;;0.80;99.90;;;;;;5022711;28;20206;-78
2022/11/22 02:19:48;;;;;;;41.15;24.55;;;0.80;99.90;;;;;;5017140;28;20228;-86
2022/11/22 02:22:27;;;;;;;41.92;24.65;;;0.90;99.90;;;;;;5027213;28;20237;-81
2022/11/22 02:24:56;;;;;;;46.33;24.85;;;0.80;99.90;;;;;;5009697;28;20201;-80
2022/11/22 02:27:23;;;;;;;43.03;26.42;;;0.70;99.90;;;;;;5029514;28;20216;-81
2022/11/22 02:29:50;;;;;;;40.75;24.73;;;0.80;99.90;;;;;;5027820;28;20214;-85
2022/11/22 02:32:18;;;;;;;41.78;24.35;;;0.80;99.90;;;;;;5007695;28;20432;-85
2022/11/22 02:34:47;;;;;;;45.78;27.55;;;0.80;99.90;;;;;;5009973;28;20382;-80
2022/11/22 02:37:19;;;;;;;52.17;26.50;;;0.80;99.90;;;;;;5030162;28;20205;-79
2022/11/22 02:39:49;;;;;;;65.50;30.88;;;0.70;99.90;;;;;;5022312;28;20267;-80
2022/11/22 02:42:16;;;;;;;51.47;30.80;;;0.70;99.90;;;;;;5021815;28;20225;-83
2022/11/22 02:44:43;;;;;;;54.88;29.58;;;0.70;99.90;;;;;;5004274;28;20300;-82
2022/11/22 02:47:10;;;;;;;66.47;34.55;;;0.70;99.90;;;;;;5006729;28;20205;-86
2022/11/22 02:49:37;;;;;;;66.60;33.05;;;0.70;99.90;;;;;;5005373;28;20501;-83
2022/11/22 02:52:04;;;;;;;55.28;28.92;;;0.60;99.90;;;;;;5006901;28;20193;-84
2022/11/22 02:54:31;;;;;;;68.07;32.42;;;0.60;99.90;;;;;;5034131;28;20230;-88
2022/11/22 02:56:58;;;;;;;55.90;32.65;;;0.60;99.90;;;;;;5017316;28;20252;-85
2022/11/22 02:59:25;;;;;;;72.43;32.70;;;0.70;99.90;;;;;;5015452;28;20214;-85
2022/11/22 03:01:54;;;;;;;71.68;36.92;;;0.70;99.90;;;;;;5021245;28;20209;-85
2022/11/22 03:04:28;;;;;;;66.25;35.75;;;0.80;99.90;;;;;;5019742;28;20217;-83
2022/11/22 03:06:58;;;;;;;60.50;33.05;;;0.60;99.90;;;;;;5022083;28;20262;-80
2022/11/22 03:09:26;;;;;;;63.42;33.72;;;0.70;99.90;;;;;;5020163;28;20267;-80
2022/11/22 03:11:54;;;;;;;59.67;33.03;;;0.80;99.90;;;;;;5019745;28;20197;-81
2022/11/22 03:14:21;;;;;;;61.13;30.83;;;0.70;99.90;;;;;;5021361;28;20229;-82
2022/11/22 03:16:48;;;;;;;62.58;29.13;;;0.80;99.90;;;;;;5019740;28;20632;-81
2022/11/22 03:19:15;;;;;;;47.00;26.92;;;0.60;99.90;;;;;;5002655;28;20209;-80
2022/11/22 03:21:42;;;;;;;53.45;28.20;;;0.60;99.90;;;;;;5022544;28;20205;-85
2022/11/22 03:24:10;;;;;;;56.58;31.85;;;0.70;99.90;;;;;;5025002;28;20422;-82
2022/11/22 03:26:38;;;;;;;59.60;30.27;;;0.60;99.90;;;;;;5003213;28;20216;-80
2022/11/22 03:29:05;;;;;;;76.57;35.83;;;0.60;99.90;;;;;;5006668;28;20212;-79
2022/11/22 03:31:31;;;;;;;88.88;37.15;;;0.50;99.90;;;;;;5012143;28;20196;-85
2022/11/22 03:33:58;;;;;;;66.60;32.17;;;0.50;99.90;;;;;;5002715;28;20401;-85
2022/11/22 03:36:25;;;;;;;67.15;33.17;;;0.70;99.90;;;;;;5009546;28;20193;-81
2022/11/22 03:38:53;;;;;;;83.65;36.45;;;0.80;99.90;;;;;;5038956;28;20213;-85
2022/11/22 03:41:20;;;;;;;93.78;37.50;;;0.70;99.90;;;;;;5025568;28;20205;-82
2022/11/22 03:43:47;;;;;;;84.38;35.13;;;0.60;99.90;;;;;;5025599;28;20244;-80
2022/11/22 03:46:15;;;;;;;86.13;35.72;;;0.60;99.90;;;;;;5016348;28;20218;-82
2022/11/22 03:48:42;;;;;;;85.85;36.75;;;0.60;99.90;;;;;;5019779;28;20288;-84
2022/11/22 03:51:10;;;;;;;75.93;37.40;;;0.70;99.90;;;;;;5021798;28;20213;-82
2022/11/22 03:53:37;;;;;;;84.35;39.00;;;0.70;99.90;;;;;;5004234;28;20485;-83
2022/11/22 03:56:05;;;;;;;82.55;37.67;;;0.80;99.90;;;;;;5003040;28;20241;-81
2022/11/22 03:58:32;;;;;;;79.38;37.75;;;0.80;99.90;;;;;;5020039;28;20471;-81
2022/11/22 04:00:59;;;;;;;76.35;36.78;;;0.80;99.90;;;;;;5019733;28;20205;-85
2022/11/22 04:03:26;;;;;;;76.88;35.95;;;0.80;99.90;;;;;;5001799;28;20257;-81
2022/11/22 04:05:54;;;;;;;82.90;39.50;;;0.70;99.90;;;;;;5022696;28;20209;-82
2022/11/22 04:08:21;;;;;;;78.15;38.38;;;0.70;99.90;;;;;;5015360;28;20255;-77
2022/11/22 04:10:49;;;;;;;76.50;35.00;;;0.70;99.90;;;;;;5011061;28;20205;-80
2022/11/22 04:13:17;;;;;;;90.20;41.60;;;0.70;99.90;;;;;;5037714;28;20503;-84
2022/11/22 04:15:44;;;;;;;97.38;45.85;;;0.70;99.90;;;;;;5003125;28;20202;-82
2022/11/22 04:18:13;;;;;;;121.32;48.92;;;0.70;99.90;;;;;;5027225;28;20210;-84
2022/11/22 04:25:12;;;;;;;100.18;39.70;;;0.60;99.90;;;;;;4960427;28;20528;-83
2022/11/22 04:26:32;;;;;;;100.57;45.10;;;0.50;99.90;;;;;;4968214;28;20253;-87
2022/11/22 04:28:59;;;;;;;102.43;44.53;;;0.50;99.90;;;;;;4996648;28;20225;-81
2022/11/22 04:34:21;;;;;;;121.22;46.20;;;0.40;99.90;;;;;;5019743;28;20276;-86
2022/11/22 04:36:48;;;;;;;131.77;44.53;;;0.30;99.90;;;;;;5019446;28;20201;-78
2022/11/22 04:39:15;;;;;;;111.05;42.63;;;0.30;99.90;;;;;;5019882;28;20263;-80
2022/11/22 04:41:42;;;;;;;93.50;45.10;;;0.30;99.90;;;;;;5021137;28;20271;-85
2022/11/22 04:47:04;;;;;;;130.35;49.35;;;0.40;99.90;;;;;;5197652;22;20559;-86
2022/11/22 04:49:32;;;;;;;146.98;50.97;;;0.40;99.90;;;;;;5081259;28;20564;-83
2022/11/22 04:54:46;;;;;;;149.27;48.83;;;0.60;99.90;;;;;;5076577;28;20203;-86
2022/11/22 04:57:13;;;;;;;134.70;50.38;;;0.60;99.90;;;;;;5077902;28;20203;-83
2022/11/22 04:59:40;;;;;;;135.30;49.60;;;0.50;99.90;;;;;;5063807;28;20252;-86
2022/11/22 05:02:08;;;;;;;134.23;49.65;;;0.50;99.90;;;;;;5078151;28;20203;-82
2022/11/22 05:04:35;;;;;;;148.63;52.08;;;0.80;99.90;;;;;;5076399;28;20207;-82
2022/11/22 05:07:02;;;;;;;116.50;44.47;;;0.60;99.90;;;;;;5077143;28;20211;-85
2022/11/22 05:09:29;;;;;;;116.07;47.13;;;0.60;99.90;;;;;;5077712;28;20208;-81
2022/11/22 05:11:56;;;;;;;142.45;49.03;;;0.60;99.90;;;;;;5058831;28;20277;-85
2022/11/22 05:14:24;;;;;;;117.55;42.72;;;0.60;99.90;;;;;;5092226;28;20202;-85
2022/11/22 05:16:52;;;;;;;139.55;48.15;;;0.60;99.90;;;;;;5075157;28;20266;-86
2022/11/22 05:19:18;;;;;;;106.88;41.88;;;0.70;99.90;;;;;;5070188;28;20204;-83
2022/11/22 05:21:46;;;;;;;96.03;38.08;;;0.70;99.90;;;;;;5074646;28;20435;-82
2022/11/22 05:24:13;;;;;;;84.20;34.92;;;0.70;99.90;;;;;;5077241;28;20196;-82
2022/11/22 05:26:40;;;;;;;90.90;35.25;;;0.70;99.90;;;;;;5077015;28;20231;-81
2022/11/22 05:29:09;;;;;;;79.22;35.22;;;0.70;99.90;;;;;;5076806;28;20230;-82
2022/11/22 05:31:37;;;;;;;94.53;36.83;;;0.80;99.90;;;;;;5076948;28;20325;-84
2022/11/22 05:34:06;;;;;;;104.47;36.38;;;0.90;99.90;;;;;;5062736;28;20431;-83
2022/11/22 05:36:34;;;;;;;80.05;36.42;;;0.90;99.90;;;;;;5083855;28;20200;-83
2022/11/22 05:39:02;;;;;;;139.23;37.75;;;1.00;99.90;;;;;;5084378;28;20196;-82
2022/11/22 05:41:29;;;;;;;101.50;35.97;;;0.80;99.90;;;;;;5062654;28;20242;-83
2022/11/22 05:43:59;;;;;;;94.93;33.20;;;0.80;99.90;;;;;;5067938;28;20271;-85
2022/11/22 05:46:28;;;;;;;114.13;39.17;;;0.80;99.90;;;;;;5079892;28;20462;-85
2022/11/22 05:48:57;;;;;;;68.15;30.73;;;0.80;99.90;;;;;;5062945;28;20265;-84
2022/11/22 05:51:28;;;;;;;91.43;32.50;;;0.80;99.90;;;;;;5066278;28;20206;-84
2022/11/22 05:54:00;;;;;;;77.93;33.88;;;0.80;99.90;;;;;;5064360;28;20199;-85
2022/11/22 05:56:28;;;;;;;73.53;33.15;;;0.80;99.90;;;;;;5060170;28;20192;-83
2022/11/22 05:58:55;;;;;;;75.65;29.13;;;0.90;99.90;;;;;;5051131;28;20254;-86
2022/11/22 06:01:24;;;;;;;77.30;29.63;;;1.00;99.90;;;;;;5069673;28;20263;-84
2022/11/22 06:03:53;;;;;;;84.10;33.25;;;0.80;99.90;;;;;;5071783;28;20208;-81
2022/11/22 06:06:26;;;;;;;84.07;33.70;;;0.80;99.90;;;;;;5035335;28;20211;-84
2022/11/22 06:08:53;;;;;;;97.53;32.92;;;0.80;99.90;;;;;;5042203;28;20247;-84
2022/11/22 06:11:23;;;;;;;91.43;35.05;;;0.90;99.90;;;;;;5063901;28;20192;-84
2022/11/22 06:13:58;;;;;;;99.18;35.65;;;1.00;99.90;;;;;;5057031;28;20204;-83
2022/11/22 06:16:26;;;;;;;112.53;37.63;;;0.90;99.90;;;;;;5078867;28;20199;-82
2022/11/22 06:18:53;;;;;;;83.80;35.15;;;1.00;99.90;;;;;;5063586;28;20196;-83
2022/11/22 06:21:22;;;;;;;90.25;33.97;;;1.00;99.90;;;;;;5063294;28;20211;-87
2022/11/22 06:23:54;;;;;;;120.07;43.65;;;1.00;99.90;;;;;;5047718;28;20212;-82
2022/11/22 06:26:23;;;;;;;111.63;40.42;;;1.00;99.90;;;;;;5086498;28;20284;-85
2022/11/22 06:28:51;;;;;;;128.73;47.22;;;1.00;99.90;;;;;;5065462;28;20215;-85
2022/11/22 06:31:24;;;;;;;118.80;43.90;;;0.90;99.90;;;;;;5054566;28;20223;-87
2022/11/22 06:34:00;;;;;;;116.03;44.72;;;1.00;99.90;;;;;;5047768;28;20212;-84
2022/11/22 06:36:30;;;;;;;124.65;43.38;;;1.10;99.90;;;;;;5062568;28;20500;-86
2022/11/22 06:39:00;;;;;;;122.90;46.42;;;1.00;99.90;;;;;;5054181;28;20188;-86
2022/11/22 06:41:31;;;;;;;146.55;48.60;;;1.10;99.90;;;;;;5087293;28;20253;-84
2022/11/22 06:44:02;;;;;;;135.02;49.88;;;1.10;99.90;;;;;;5063970;28;20203;-83
2022/11/22 06:46:29;;;;;;;80.78;37.88;;;1.10;99.90;;;;;;5051379;28;20232;-85
2022/11/22 06:48:57;;;;;;;100.30;37.88;;;1.30;99.90;;;;;;5057527;28;20207;-79
2022/11/22 06:51:29;;;;;;;77.55;34.40;;;1.10;99.90;;;;;;5049504;28;20511;-82
2022/11/22 06:53:57;;;;;;;60.63;31.83;;;1.20;99.90;;;;;;5057105;28;20208;-82
2022/11/22 06:56:35;;;;;;;52.13;29.40;;;1.20;99.90;;;;;;5062846;28;20257;-86
2022/11/22 06:59:04;;;;;;;65.82;32.67;;;1.20;99.90;;;;;;5063014;28;20199;-84
2022/11/22 07:01:33;;;;;;;56.15;29.05;;;1.10;99.90;;;;;;5077723;28;20204;-78
2022/11/22 07:04:00;;;;;;;64.63;29.90;;;1.10;99.90;;;;;;5044812;28;20234;-81
2022/11/22 07:06:33;;;;;;;58.88;30.88;;;1.20;99.90;;;;;;5061842;28;20242;-78
2022/11/22 07:09:01;;;;;;;75.65;33.20;;;1.20;99.90;;;;;;5043223;28;20292;-82
2022/11/22 07:11:31;;;;;;;76.65;32.97;;;1.20;99.90;;;;;;5053605;28;20275;-85
2022/11/22 07:14:00;;;;;;;63.10;32.10;;;1.30;99.90;;;;;;5057009;28;20192;-87
2022/11/22 07:16:35;;;;;;;77.35;33.15;;;1.30;99.90;;;;;;5064405;28;20210;-86
2022/11/22 07:19:02;;;;;;;71.68;35.58;;;1.40;99.90;;;;;;5073862;28;20188;-85
2022/11/22 07:21:31;;;;;;;65.75;30.55;;;1.30;99.90;;;;;;5069462;28;20216;-84
2022/11/22 07:23:58;;;;;;;65.30;30.85;;;1.30;99.90;;;;;;5048825;28;20270;-83
2022/11/22 07:26:27;;;;;;;82.68;34.13;;;1.30;99.90;;;;;;5071577;28;20223;-80
2022/11/22 07:28:54;;;;;;;90.75;35.50;;;1.40;99.90;;;;;;5049276;28;20239;-83
2022/11/22 07:31:21;;;;;;;90.10;37.38;;;1.30;99.90;;;;;;5056815;28;20208;-80
2022/11/22 07:33:48;;;;;;;75.55;37.30;;;1.50;99.90;;;;;;5034628;28;20196;-82
2022/11/22 07:36:18;;;;;;;90.75;40.40;;;1.40;99.90;;;;;;5055298;28;20248;-85
2022/11/22 07:38:46;;;;;;;96.80;36.28;;;1.50;99.90;;;;;;5048062;28;20204;-85
2022/11/22 07:41:15;;;;;;;82.82;39.28;;;1.50;99.90;;;;;;5055976;28;20205;-84
2022/11/22 07:43:41;;;;;;;96.05;39.85;;;1.60;99.90;;;;;;5076782;28;20254;-81
2022/11/22 07:46:19;;;;;;;117.63;44.58;;;1.50;99.90;;;;;;5068181;28;20596;-81
2022/11/22 07:48:48;;;;;;;110.78;42.45;;;1.60;99.90;;;;;;5063496;28;20223;-84
2022/11/22 07:51:16;;;;;;;102.50;40.28;;;1.60;99.90;;;;;;5046470;28;20214;-82
2022/11/22 07:53:43;;;;;;;99.88;43.35;;;1.70;99.90;;;;;;5050426;28;20666;-78
2022/11/22 07:56:10;;;;;;;92.68;38.55;;;1.80;99.90;;;;;;5064568;28;20212;-83
2022/11/22 07:58:38;;;;;;;88.22;36.90;;;1.90;99.90;;;;;;5060660;28;20207;-83
2022/11/22 08:01:07;;;;;;;158.85;42.17;;;1.70;99.90;;;;;;5059947;28;20459;-82
2022/11/22 08:03:37;;;;;;;117.72;46.53;;;1.80;99.90;;;;;;5060417;28;20211;-87
2022/11/22 08:06:11;;;;;;;107.70;45.47;;;1.80;99.90;;;;;;5047924;28;20350;-81
2022/11/22 08:08:38;;;;;;;109.40;42.78;;;1.70;99.90;;;;;;5048072;28;20678;-82
2022/11/22 08:11:06;;;;;;;101.88;41.88;;;1.80;99.90;;;;;;5047595;28;20231;-83
2022/11/22 08:13:34;;;;;;;108.38;44.30;;;1.80;99.90;;;;;;5060520;28;20204;-80
2022/11/22 08:16:04;;;;;;;98.65;42.70;;;1.90;99.90;;;;;;5052145;28;20200;-86
2022/11/22 08:18:33;;;;;;;113.85;40.17;;;2.00;99.90;;;;;;5057062;28;20224;-80
2022/11/22 08:21:08;;;;;;;117.72;44.58;;;1.90;99.90;;;;;;5041383;28;20192;-84
2022/11/22 08:23:36;;;;;;;93.43;38.92;;;2.10;99.90;;;;;;5061777;28;20212;-81
2022/11/22 08:26:04;;;;;;;94.70;38.95;;;2.20;99.90;;;;;;5043148;28;20292;-82
2022/11/22 08:28:32;;;;;;;96.00;46.72;;;2.00;99.90;;;;;;5061364;28;20504;-84
2022/11/22 08:31:03;;;;;;;115.55;41.03;;;2.00;99.90;;;;;;5059682;28;20485;-85
2022/11/22 08:33:31;;;;;;;109.13;44.13;;;2.10;99.90;;;;;;5049794;28;20208;-83
2022/11/22 08:35:58;;;;;;;87.43;41.28;;;2.20;99.90;;;;;;5044084;28;20215;-80
2022/11/22 08:38:26;;;;;;;96.05;39.22;;;2.30;99.90;;;;;;5048779;28;20215;-82
2022/11/22 08:40:53;;;;;;;84.82;39.05;;;2.30;99.90;;;;;;5042200;28;20410;-80
2022/11/22 08:43:20;;;;;;;75.55;37.95;;;2.40;99.90;;;;;;5059850;28;20250;-81
2022/11/22 08:45:56;;;;;;;70.53;37.67;;;2.50;99.90;;;;;;5060024;28;20331;-81
2022/11/22 08:48:24;;;;;;;66.25;33.28;;;2.70;99.90;;;;;;5047930;28;20216;-82
2022/11/22 08:50:54;;;;;;;77.50;37.58;;;2.50;99.90;;;;;;5046244;28;20254;-82
2022/11/22 08:53:23;;;;;;;60.25;37.60;;;2.20;99.90;;;;;;5053176;28;20512;-81
2022/11/22 08:55:51;;;;;;;63.83;35.92;;;2.30;99.90;;;;;;5058899;28;20212;-78
2022/11/22 08:58:18;;;;;;;84.93;38.83;;;2.50;99.90;;;;;;5059757;28;20392;-83
2022/11/22 09:00:45;;;;;;;73.72;37.10;;;2.50;99.90;;;;;;5059398;28;20214;-81
2022/11/22 09:03:12;;;;;;;80.60;35.45;;;2.50;99.90;;;;;;5043413;28;20284;-82
2022/11/22 09:05:39;;;;;;;69.85;36.90;;;2.50;99.90;;;;;;5032483;28;20270;-84
2022/11/22 09:08:26;;;;;;;63.33;35.22;;;2.60;99.90;;;;;;5058790;28;20310;-82
2022/11/22 09:11:05;;;;;;;64.88;32.13;;;2.70;99.90;;;;;;5066870;28;20189;-83
2022/11/22 09:13:32;;;;;;;59.08;34.05;;;2.60;99.90;;;;;;5055634;28;20181;-85
2022/11/22 09:16:18;;;;;;;58.22;33.72;;;2.50;99.90;;;;;;5064645;28;20204;-81
2022/11/22 09:18:46;;;;;;;56.78;29.20;;;2.50;99.90;;;;;;5061889;28;20514;-83
2022/11/22 09:21:19;;;;;;;64.00;34.22;;;2.60;99.90;;;;;;5061749;28;20262;-81
2022/11/22 09:23:48;;;;;;;56.70;28.75;;;2.60;99.90;;;;;;5051025;28;20250;-78
2022/11/22 09:26:19;;;;;;;64.72;30.35;;;2.70;99.90;;;;;;5049489;28;20266;-82
2022/11/22 09:28:46;;;;;;;65.45;31.83;;;2.70;99.90;;;;;;5060051;28;20212;-84
2022/11/22 09:31:18;;;;;;;61.58;31.00;;;2.70;99.90;;;;;;5060678;28;20200;-80
2022/11/22 09:33:48;;;;;;;56.50;31.40;;;2.70;99.90;;;;;;5060352;28;20400;-87
2022/11/22 09:36:17;;;;;;;62.20;32.80;;;2.90;99.90;;;;;;5067200;28;20196;-86
2022/11/22 09:38:45;;;;;;;66.65;33.92;;;2.90;99.90;;;;;;5063073;28;20197;-82
2022/11/22 09:41:23;;;;;;;72.28;33.38;;;2.80;99.90;;;;;;5062744;28;20215;-80
2022/11/22 09:44:25;;;;;;;67.80;35.17;;;2.70;99.90;;;;;;5055542;28;20242;-80
2022/11/22 09:47:11;;;;;;;61.35;35.30;;;2.70;99.90;;;;;;5054644;28;20224;-81
2022/11/22 09:49:59;;;;;;;54.53;31.65;;;2.90;99.90;;;;;;5056248;28;20251;-79
2022/11/22 09:52:39;;;;;;;68.57;33.72;;;2.90;99.90;;;;;;5052602;28;20192;-79
2022/11/22 09:55:17;;;;;;;59.60;30.95;;;3.00;99.90;;;;;;5062951;28;20203;-80
2022/11/22 09:58:12;;;;;;;66.55;34.85;;;3.00;99.90;;;;;;5046079;28;20219;-82
2022/11/22 10:00:41;;;;;;;67.82;35.33;;;2.90;99.90;;;;;;5064810;28;20196;-81
2022/11/22 10:03:20;;;;;;;65.78;34.95;;;2.90;99.90;;;;;;5048441;28;20234;-82
2022/11/22 10:05:58;;;;;;;64.53;33.88;;;3.10;99.90;;;;;;5064673;28;20218;-81
2022/11/22 10:09:02;;;;;;;69.82;32.17;;;3.10;99.90;;;;;;5050571;28;20367;-84
2022/11/22 10:11:41;;;;;;;61.22;35.08;;;3.30;99.90;;;;;;5066825;28;20214;-82
2022/11/22 10:14:29;;;;;;;69.35;31.73;;;3.20;99.90;;;;;;5066947;28;20430;-85
2022/11/22 10:17:03;;;;;;;63.67;34.35;;;3.10;99.90;;;;;;5057243;28;20200;-79
2022/11/22 10:19:40;;;;;;;70.63;39.80;;;3.10;99.90;;;;;;5064952;28;20687;-81
2022/11/22 10:22:14;;;;;;;58.55;32.03;;;3.10;99.90;;;;;;5059521;28;20239;-78
2022/11/22 10:24:42;;;;;;;55.78;31.30;;;3.20;99.90;;;;;;5066478;28;20215;-84
2022/11/22 10:27:15;;;;;;;55.53;33.75;;;3.20;99.90;;;;;;5063706;28;20235;-83
2022/11/22 10:29:46;;;;;;;58.95;32.45;;;3.30;99.90;;;;;;5063233;28;20250;-79
2022/11/22 10:32:41;;;;;;;55.80;29.85;;;3.20;99.90;;;;;;5064152;28;20226;-79
2022/11/22 10:35:38;;;;;;;59.15;33.65;;;3.20;99.90;;;;;;5063669;28;20204;-86
2022/11/22 10:38:41;;;;;;;62.05;32.88;;;3.20;99.90;;;;;;5057678;28;20204;-83
2022/11/22 10:41:39;;;;;;;62.35;32.88;;;3.30;99.90;;;;;;5064549;28;20193;-81
2022/11/22 10:44:31;;;;;;;60.58;32.38;;;3.20;99.90;;;;;;5064286;28;20184;-83
2022/11/22 10:47:13;;;;;;;60.78;32.28;;;3.10;99.90;;;;;;5065208;28;20250;-82
2022/11/22 10:49:59;;;;;;;59.30;32.85;;;3.10;99.90;;;;;;5057197;28;20250;-82
2022/11/22 10:52:44;;;;;;;66.53;34.70;;;3.30;99.90;;;;;;5065908;28;20306;-87
2022/11/22 10:55:20;;;;;;;60.90;33.10;;;3.20;99.90;;;;;;5053944;28;20208;-84
2022/11/22 10:58:23;;;;;;;56.72;33.20;;;3.40;99.90;;;;;;5065810;28;20227;-83
2022/11/22 11:01:04;;;;;;;57.30;32.53;;;3.30;99.90;;;;;;5084146;28;20204;-81
2022/11/22 11:03:35;;;;;;;60.65;32.80;;;3.40;99.90;;;;;;5064039;28;20504;-82
2022/11/22 11:06:13;;;;;;;51.63;31.70;;;3.60;99.90;;;;;;5051244;28;20278;-82
2022/11/22 11:09:00;;;;;;;58.60;32.10;;;3.70;99.90;;;;;;5062708;28;20196;-81
2022/11/22 11:11:50;;;;;;;63.55;32.03;;;3.90;99.90;;;;;;5053911;28;20242;-80
2022/11/22 11:14:22;;;;;;;56.33;32.35;;;3.80;99.90;;;;;;5030212;28;20236;-82
2022/11/22 11:16:51;;;;;;;59.22;31.40;;;3.90;99.90;;;;;;5079006;28;20249;-79
2022/11/22 11:19:28;;;;;;;52.33;31.00;;;3.80;99.90;;;;;;5062836;28;20208;-79
2022/11/22 11:22:21;;;;;;;54.60;30.80;;;3.90;99.90;;;;;;5042407;28;20212;-81
2022/11/22 11:25:29;;;;;;;57.03;34.47;;;4.00;99.90;;;;;;5064552;28;20207;-80
2022/11/22 11:28:04;;;;;;;64.13;34.40;;;4.00;99.90;;;;;;5062498;28;20291;-80
2022/11/22 11:30:41;;;;;;;53.95;30.90;;;4.60;99.90;;;;;;5095909;28;20208;-80
2022/11/22 11:33:24;;;;;;;56.42;32.83;;;4.60;99.90;;;;;;5050153;28;20234;-81
2022/11/22 11:35:56;;;;;;;55.45;33.20;;;4.50;99.90;;;;;;5079621;28;20222;-85
2022/11/22 11:38:33;;;;;;;53.88;29.88;;;4.60;99.90;;;;;;5072982;28;20219;-85
2022/11/22 11:41:27;;;;;;;51.25;29.63;;;4.50;99.90;;;;;;5071934;28;20214;-83
2022/11/22 11:43:56;;;;;;;47.85;28.92;;;4.60;99.90;;;;;;5067258;28;20208;-79
2022/11/22 11:46:26;;;;;;;54.40;31.08;;;4.70;99.90;;;;;;5061792;28;20278;-81
2022/11/22 11:48:55;;;;;;;51.03;32.00;;;4.90;99.90;;;;;;5067163;28;20231;-83
2022/11/22 11:51:30;;;;;;;48.10;32.00;;;5.00;99.90;;;;;;5067726;28;20208;-83
2022/11/22 11:54:04;;;;;;;52.95;31.55;;;4.60;99.90;;;;;;5068311;28;20214;-79
2022/11/22 11:56:33;;;;;;;63.50;35.28;;;4.40;99.90;;;;;;5061946;28;20224;-81
2022/11/22 11:59:09;;;;;;;46.85;30.98;;;4.60;99.90;;;;;;5062006;28;20388;-82
2022/11/22 12:01:38;;;;;;;51.75;32.03;;;4.50;99.90;;;;;;5061562;28;20200;-81
2022/11/22 12:04:06;;;;;;;54.92;31.90;;;4.40;99.90;;;;;;5062918;28;20204;-82
2022/11/22 12:06:33;;;;;;;51.05;30.30;;;4.40;99.90;;;;;;5064601;28;20254;-80
2022/11/22 12:09:07;;;;;;;56.28;31.02;;;4.30;99.90;;;;;;5065402;28;20242;-83
2022/11/22 12:11:46;;;;;;;56.42;33.35;;;4.20;99.90;;;;;;5051273;28;20203;-82
2022/11/22 12:14:16;;;;;;;46.67;31.42;;;4.20;99.90;;;;;;5048393;28;20250;-83
2022/11/22 12:16:51;;;;;;;54.40;34.25;;;4.30;99.90;;;;;;5061018;28;20208;-80
2022/11/22 12:19:28;;;;;;;64.18;32.55;;;4.40;99.90;;;;;;5063235;28;20200;-82
2022/11/22 12:22:04;;;;;;;50.20;32.47;;;4.50;99.90;;;;;;5060417;28;20200;-83
2022/11/22 12:24:35;;;;;;;52.90;30.10;;;4.70;99.90;;;;;;5060697;28;20208;-82
2022/11/22 12:27:22;;;;;;;59.53;32.05;;;4.60;99.90;;;;;;5064226;28;20574;-83
2022/11/22 12:29:49;;;;;;;52.03;30.10;;;4.40;99.90;;;;;;5060707;28;20208;-81
2022/11/22 12:32:28;;;;;;;55.72;32.92;;;4.60;99.90;;;;;;5088869;28;20204;-86
2022/11/22 12:35:00;;;;;;;57.42;30.65;;;4.60;99.90;;;;;;5053952;28;20373;-81
2022/11/22 12:37:33;;;;;;;54.13;32.13;;;4.60;99.90;;;;;;5058358;28;20204;-81
2022/11/22 12:40:05;;;;;;;54.15;33.90;;;4.70;99.90;;;;;;5060597;28;20249;-80
2022/11/22 12:42:46;;;;;;;52.72;33.92;;;4.70;99.90;;;;;;5059806;28;20496;-81
2022/11/22 12:45:27;;;;;;;51.10;35.85;;;4.80;99.90;;;;;;5050105;28;20207;-80
2022/11/22 12:47:57;;;;;;;64.38;36.22;;;4.60;99.90;;;;;;5060238;28;20530;-82
2022/11/22 12:50:30;;;;;;;64.40;38.88;;;4.60;99.90;;;;;;5059530;28;20238;-82
2022/11/22 12:53:04;;;;;;;65.00;40.13;;;4.50;99.90;;;;;;5039688;28;20470;-82
2022/11/22 12:55:48;;;;;;;68.57;39.75;;;4.40;99.90;;;;;;5042001;28;20239;-82
2022/11/22 12:58:22;;;;;;;76.93;43.65;;;4.40;99.90;;;;;;5039220;28;20227;-85
2022/11/22 13:01:11;;;;;;;65.82;37.40;;;4.50;99.90;;;;;;5060696;28;20188;-83
2022/11/22 13:04:01;;;;;;;61.47;36.45;;;4.50;99.90;;;;;;5053506;28;20204;-79
2022/11/22 13:06:35;;;;;;;58.63;38.10;;;4.40;99.90;;;;;;5059004;28;20212;-81
2022/11/22 13:09:06;;;;;;;71.25;39.05;;;4.50;99.90;;;;;;5063200;28;20200;-81